This is the latest recevied weather packets stored in our database for station/object N8ASV. If no packets are shown the sender has not sent any weather packets the latest 10 day(s).
| Time | Temp. | Humidity | Pressure | Rain* | Wind** | Luminosity | Snow |
|---|---|---|---|---|---|---|---|
| 1777760716 | 11.11° C | 45% | 1015.3 hPa | 0 mm | - | - | - |
| 1777758916 | 11.67° C | 42% | 1015.2 hPa | 0 mm | - | - | - |
| 1777755916 | 11.67° C | 46% | 1015 hPa | 0 mm | - | - | - |
| 1777754116 | 12.22° C | 44% | 1015.1 hPa | 0 mm | - | - | - |
| 1777751118 | 12.22° C | 39% | 1015.4 hPa | 0 mm | - | - | - |
| 1777741517 | 12.78° C | 56% | 1016.2 hPa | 0 mm | - | - | - |
| 1777740317 | 11.67° C | 54% | 1016.3 hPa | 0 mm | - | - | - |
| 1777738517 | 11.67° C | 55% | 1016.7 hPa | 0 mm | - | - | - |
| 1777737317 | 11.11° C | 54% | 1016.8 hPa | 0 mm | - | - | - |
| 1777736117 | 11.11° C | 48% | 1016.9 hPa | 0 mm | - | - | - |
| 1777734316 | 10.56° C | 52% | 1016.9 hPa | 0 mm | - | - | - |
| 1777731316 | 7.78° C | 60% | 1017 hPa | 0 mm | - | - | - |
| 1777729516 | 7.22° C | 63% | 1017 hPa | 0 mm | - | - | - |
| 1777721716 | 1.11° C | 93% | 1016.3 hPa | 0 mm | - | - | - |
| 1777720516 | 0.56° C | 91% | 1016.2 hPa | 0 mm | - | - | - |
| 1777719916 | 0.56° C | 91% | 1016 hPa | 0 mm | - | - | - |
| 1777718118 | 0.56° C | 91% | 1015.7 hPa | 0 mm | - | - | - |
| 1777717558 | 0.56° C | 91% | 1015.7 hPa | 0 mm | - | - | - |
| 1777703116 | 2.78° C | 90% | 1015.8 hPa | 0 mm | - | - | - |
| 1777700717 | 2.78° C | 90% | 1016.4 hPa | 0 mm | - | - | - |
| 1777700116 | 2.78° C | 89% | 1016.2 hPa | 0 mm | - | - | - |
| 1777698316 | 2.78° C | 89% | 1016.1 hPa | 0 mm | - | - | - |
| 1777697716 | 2.78° C | 88% | 1016 hPa | 0 mm | - | - | - |
| 1777695916 | 3.33° C | 87% | 1016 hPa | 0 mm | - | - | - |
| 1777694116 | 3.89° C | 86% | 1016.2 hPa | 0 mm | - | - | - |
* Rain latest hour (hover to see other rain measurements)
** Current wind speed in m/s (hover to see current wind gust speed)